createdAt,value
2018-09-14T00:03:57.975Z,4.00
2018-09-14T00:09:01.438Z,3.75
2018-09-14T00:14:04.879Z,2.75
2018-09-14T00:19:08.457Z,4.80
2018-09-14T00:24:11.925Z,2.80
2018-09-14T00:29:15.404Z,3.40
2018-09-14T00:34:18.852Z,2.25
2018-09-14T00:39:22.313Z,4.00
2018-09-14T00:44:25.764Z,3.00
2018-09-14T00:49:29.358Z,3.00
2018-09-14T00:54:32.826Z,4.00
2018-09-14T00:59:36.280Z,2.20
2018-09-14T01:04:39.747Z,2.20
2018-09-14T01:09:43.193Z,2.00
2018-09-14T01:14:46.652Z,2.40
2018-09-14T01:19:50.106Z,3.75
2018-09-14T01:24:53.564Z,2.00
2018-09-14T01:29:57.020Z,3.50
2018-09-14T01:35:00.493Z,4.80
2018-09-14T01:40:04.671Z,3.00
2018-09-14T01:45:08.136Z,3.00
2018-09-14T01:50:11.663Z,4.00
2018-09-14T01:55:15.084Z,4.60
2018-09-14T02:00:18.732Z,4.00
2018-09-14T02:05:22.224Z,2.20
2018-09-14T02:10:25.706Z,4.00
2018-09-14T02:15:29.175Z,4.80
2018-09-14T02:20:32.644Z,2.80
2018-09-14T02:25:36.119Z,5.00
2018-09-14T02:30:39.582Z,4.75
2018-09-14T02:35:43.043Z,4.80
2018-09-14T02:40:46.536Z,2.00
2018-09-14T02:45:50.186Z,3.20
2018-09-14T02:50:53.640Z,2.25
2018-09-14T02:55:57.103Z,3.40
2018-09-14T03:01:00.540Z,2.20
2018-09-14T03:06:03.999Z,4.00
2018-09-14T03:11:07.480Z,2.80
2018-09-14T03:16:10.946Z,2.25
2018-09-14T03:21:14.515Z,3.00
2018-09-14T03:26:17.952Z,2.25
2018-09-14T03:31:21.437Z,3.80
2018-09-14T03:36:25.157Z,5.00
2018-09-14T03:41:28.620Z,4.00
2018-09-14T03:46:32.096Z,3.75
2018-09-14T03:51:35.558Z,5.40
2018-09-14T03:56:39.029Z,3.00
2018-09-14T04:01:42.499Z,6.00
2018-09-14T04:06:45.936Z,5.25
2018-09-14T04:11:49.404Z,6.20
2018-09-14T04:16:52.843Z,4.40
2018-09-14T04:21:56.295Z,3.40
2018-09-14T04:26:59.727Z,5.60
2018-09-14T04:32:03.162Z,7.20
2018-09-14T04:37:06.613Z,4.20
2018-09-14T04:42:10.056Z,12.75
2018-09-14T04:47:13.484Z,9.00
2018-09-14T04:52:16.925Z,8.80
2018-09-14T04:57:20.449Z,12.40
2018-09-14T05:02:23.891Z,9.00
2018-09-14T05:07:27.339Z,10.50
2018-09-14T05:12:30.822Z,9.25
2018-09-14T05:17:34.275Z,10.00
2018-09-14T05:22:37.759Z,12.40
2018-09-14T05:27:41.202Z,10.75
2018-09-14T05:32:44.650Z,16.50
2018-09-14T05:37:48.111Z,13.25
2018-09-14T05:42:51.563Z,12.50
2018-09-14T05:47:54.999Z,12.00
2018-09-14T05:52:58.474Z,11.50
2018-09-14T05:58:01.922Z,12.50
2018-09-14T06:03:05.385Z,7.40
2018-09-14T06:08:08.827Z,12.50
2018-09-14T06:13:12.484Z,15.75
2018-09-14T06:18:15.923Z,12.25
2018-09-14T06:23:19.382Z,14.00
2018-09-14T06:28:22.815Z,11.50
2018-09-14T06:33:26.296Z,15.80
2018-09-14T06:38:29.760Z,14.75
2018-09-14T06:43:33.217Z,10.00
2018-09-14T06:48:36.674Z,14.00
2018-09-14T06:53:40.150Z,10.50
2018-09-14T06:58:43.596Z,11.75
2018-09-14T07:03:47.223Z,22.00
2018-09-14T07:08:50.683Z,22.60
2018-09-14T07:13:54.157Z,19.20
2018-09-14T07:18:57.670Z,19.60
2018-09-14T07:24:01.120Z,21.25
2018-09-14T07:29:04.653Z,23.80
2018-09-14T07:34:08.072Z,24.50
2018-09-14T07:39:12.361Z,23.00
2018-09-14T07:44:15.809Z,25.25
2018-09-14T07:49:19.312Z,23.75
2018-09-14T07:54:22.876Z,25.75
2018-09-14T07:59:26.328Z,24.40
2018-09-14T08:04:29.924Z,24.40
2018-09-14T08:09:33.391Z,22.40
2018-09-14T08:14:36.877Z,23.80
2018-09-14T08:19:40.326Z,22.00
2018-09-14T08:24:43.807Z,19.25
2018-09-14T08:29:47.523Z,28.25
2018-09-14T08:34:50.976Z,21.25
2018-09-14T08:39:54.435Z,23.40
2018-09-14T08:44:57.913Z,20.60
2018-09-14T08:50:01.389Z,22.00
2018-09-14T08:55:05.122Z,27.60
2018-09-14T09:00:08.601Z,25.60
2018-09-14T09:05:12.050Z,27.60
2018-09-14T09:10:15.539Z,28.40
2018-09-14T09:15:18.982Z,27.80
2018-09-14T09:20:22.451Z,25.40
2018-09-14T09:25:25.894Z,27.50
2018-09-14T09:30:29.363Z,23.80
2018-09-14T09:35:32.816Z,15.00
2018-09-14T09:40:36.282Z,15.40
2018-09-14T09:45:39.746Z,15.40
2018-09-14T09:50:43.203Z,11.20
2018-09-14T09:55:46.655Z,12.25
2018-09-14T10:01:52.940Z,14.25
2018-09-14T10:06:56.575Z,11.25
2018-09-14T10:12:00.032Z,11.80
2018-09-14T10:17:03.507Z,11.50
2018-09-14T10:22:06.979Z,8.25
2018-09-14T10:27:10.449Z,10.40
2018-09-14T10:32:13.910Z,10.50
2018-09-14T10:37:17.363Z,10.60
2018-09-14T10:42:20.821Z,12.25
2018-09-14T10:47:24.278Z,10.20
2018-09-14T10:52:27.721Z,8.25
2018-09-14T10:57:31.175Z,9.50
2018-09-14T11:02:34.619Z,10.25
2018-09-14T11:07:38.047Z,8.50
2018-09-14T11:12:41.682Z,9.20
2018-09-14T11:17:45.127Z,7.25
2018-09-14T11:22:48.626Z,9.00
2018-09-14T11:27:52.160Z,11.25
2018-09-14T11:32:55.614Z,9.00
2018-09-14T11:37:59.151Z,8.20
2018-09-14T11:43:02.537Z,7.00
2018-09-14T11:48:06.108Z,9.25
2018-09-14T11:53:09.548Z,9.20
2018-09-14T11:58:13.001Z,9.25
2018-09-14T12:03:16.462Z,6.75
2018-09-14T12:08:21.338Z,7.00
2018-09-14T12:13:25.006Z,7.50
2018-09-14T12:18:28.490Z,8.80
2018-09-14T12:23:31.963Z,7.50
2018-09-14T12:28:35.430Z,8.40
2018-09-14T12:33:38.862Z,7.00
2018-09-14T12:38:42.383Z,7.00
2018-09-14T12:43:45.895Z,7.00
2018-09-14T12:48:49.591Z,7.00
2018-09-14T12:53:53.119Z,6.50
2018-09-14T12:58:57.364Z,7.00
2018-09-14T13:04:00.850Z,6.75
2018-09-14T13:09:06.842Z,8.00
2018-09-14T13:14:10.323Z,8.75
2018-09-14T13:19:13.939Z,6.40
2018-09-14T13:24:17.558Z,6.80
2018-09-14T13:29:21.015Z,5.25
2018-09-14T13:34:24.590Z,8.80
2018-09-14T13:39:28.448Z,8.25
2018-09-14T13:44:32.579Z,9.40
2018-09-14T13:49:36.091Z,7.75
2018-09-14T13:54:39.558Z,7.25
2018-09-14T13:59:43.080Z,8.50
2018-09-14T14:04:46.594Z,6.25
2018-09-14T14:09:50.285Z,6.00
2018-09-14T14:14:53.707Z,7.00
2018-09-14T14:19:57.187Z,9.00
2018-09-14T14:25:00.670Z,7.80
2018-09-14T14:30:04.282Z,12.25
2018-09-14T14:35:07.787Z,8.60
2018-09-14T14:40:11.270Z,8.80
2018-09-14T14:45:15.207Z,8.00
2018-09-14T14:50:18.698Z,8.75
2018-09-14T14:55:22.159Z,10.20
2018-09-14T15:00:25.655Z,10.25
2018-09-14T15:05:29.150Z,7.40
2018-09-14T15:10:32.680Z,10.00
2018-09-14T15:15:36.157Z,9.60
2018-09-14T15:20:39.671Z,10.50
2018-09-14T15:25:43.142Z,7.50
2018-09-14T15:30:46.606Z,8.75
2018-09-14T15:35:50.141Z,8.25
2018-09-14T15:40:53.626Z,6.40
2018-09-14T15:45:57.091Z,9.00
2018-09-14T15:51:00.557Z,7.20
2018-09-14T15:56:04.051Z,6.00
2018-09-14T16:01:07.619Z,12.00
2018-09-14T16:06:11.884Z,8.75
2018-09-14T16:11:15.445Z,7.00
2018-09-14T16:16:18.879Z,9.25
2018-09-14T16:21:22.472Z,8.00
2018-09-14T16:26:25.950Z,6.50
2018-09-14T16:31:29.448Z,8.80
2018-09-14T16:36:32.894Z,7.75
2018-09-14T16:41:36.371Z,6.60
2018-09-14T16:46:39.877Z,6.00
2018-09-14T16:51:43.455Z,7.20
2018-09-14T16:56:46.848Z,6.80
2018-09-14T17:01:50.313Z,7.60
2018-09-14T17:12:33.739Z,7.00
2018-09-14T17:17:37.446Z,7.40
2018-09-14T17:22:40.942Z,8.00
2018-09-14T17:27:44.404Z,8.25
2018-09-14T17:32:47.875Z,8.20
2018-09-14T17:37:51.373Z,9.00
2018-09-14T17:42:54.880Z,6.80
2018-09-14T17:47:58.344Z,9.50
2018-09-14T17:53:01.813Z,7.00
2018-09-14T17:58:05.332Z,7.75
2018-09-14T18:03:08.793Z,8.50
2018-09-14T18:08:12.327Z,10.00
2018-09-14T18:13:15.807Z,8.00
2018-09-14T18:18:19.270Z,8.60
2018-09-14T18:23:22.753Z,8.20
2018-09-14T18:28:26.251Z,9.75
2018-09-14T18:33:29.712Z,10.00
2018-09-14T18:38:33.197Z,12.00
2018-09-14T18:43:36.655Z,14.20
2018-09-14T18:48:40.127Z,11.25
2018-09-14T18:53:43.626Z,14.75
2018-09-14T18:58:47.127Z,13.25
2018-09-14T19:03:50.592Z,14.20
2018-09-14T19:08:54.117Z,13.50
2018-09-14T19:13:57.605Z,12.60
2018-09-14T19:19:01.179Z,12.75
2018-09-14T19:24:04.751Z,17.00
2018-09-14T19:29:08.211Z,13.75
2018-09-14T19:34:11.697Z,19.75
2018-09-14T19:39:15.160Z,15.75
2018-09-14T19:44:18.621Z,16.20
2018-09-14T19:49:22.066Z,18.50
2018-09-14T19:54:25.619Z,16.40
2018-09-14T19:59:29.189Z,24.25
2018-09-14T20:04:32.689Z,16.60
2018-09-14T20:09:36.199Z,18.50
2018-09-14T20:14:39.772Z,19.00
2018-09-14T20:19:43.346Z,22.00
2018-09-14T20:24:46.793Z,24.75
2018-09-14T20:29:50.346Z,20.75
2018-09-14T20:34:53.790Z,23.00
2018-09-14T20:39:57.230Z,18.75
2018-09-14T20:45:00.681Z,24.50
2018-09-14T20:50:04.315Z,23.25
2018-09-14T20:55:07.759Z,20.40
2018-09-14T21:00:11.256Z,25.00
2018-09-14T21:05:14.727Z,23.20
2018-09-14T21:10:18.235Z,23.80
2018-09-14T21:15:21.675Z,25.75
2018-09-14T21:20:25.131Z,18.80
2018-09-14T21:25:28.579Z,18.40
2018-09-14T21:30:32.036Z,20.60
2018-09-14T21:35:35.475Z,17.75
2018-09-14T21:40:39.029Z,16.00
2018-09-14T21:45:42.508Z,18.40
2018-09-14T21:50:45.978Z,14.75
2018-09-14T21:55:49.438Z,15.20
2018-09-14T22:00:58.088Z,17.00
2018-09-14T22:06:01.563Z,16.40
2018-09-14T22:11:04.995Z,14.40
2018-09-14T22:16:08.555Z,16.40
2018-09-14T22:21:12.036Z,15.00
2018-09-14T22:26:15.491Z,15.80
2018-09-14T22:31:18.963Z,14.00
2018-09-14T22:36:22.419Z,14.80
2018-09-14T22:41:25.862Z,13.00
2018-09-14T22:46:29.330Z,12.00
2018-09-14T22:51:32.795Z,12.50
2018-09-14T22:56:36.300Z,17.00
2018-09-14T23:01:39.755Z,14.25
2018-09-14T23:06:43.237Z,15.25
2018-09-14T23:11:46.732Z,12.75
2018-09-14T23:16:50.423Z,14.20
2018-09-14T23:21:53.859Z,11.00
2018-09-14T23:26:57.326Z,12.80
2018-09-14T23:32:00.779Z,12.25
2018-09-14T23:37:04.222Z,12.00
2018-09-14T23:42:07.719Z,11.50
2018-09-14T23:47:11.155Z,15.20
2018-09-14T23:52:14.603Z,14.25
2018-09-14T23:57:18.052Z,14.50
